Time;durP1;ratioP1;P1;durP2;ratioP2;P2;SDS_P1;SDS_P2;PMS_P1;PMS_P2;Temp;Humidity;BMP_temperature;BMP_pressure;BME280_temperature;BME280_humidity;BME280_pressure;Samples;Min_cycle;Max_cycle;Signal;HPM_P1;HPM_P2
2021/04/28 06:07:28;;;;;;;8.37;5.70;;;;;;;;;;5595509;22;20450;-77
2021/04/28 06:09:54;;;;;;;6.50;5.70;;;;;;;;;;4995749;28;20481;-80
2021/04/28 06:12:21;;;;;;;8.17;6.00;;;;;;;;;;5009273;28;20459;-76
2021/04/28 06:14:48;;;;;;;8.40;6.27;;;;;;;;;;5010754;28;20525;-78
2021/04/28 06:17:15;;;;;;;7.83;6.00;;;;;;;;;;5011443;28;20498;-77
2021/04/28 06:19:42;;;;;;;7.13;5.90;;;;;;;;;;5009293;28;20451;-78
2021/04/28 06:22:09;;;;;;;8.30;6.10;;;;;;;;;;5005562;28;20406;-79
2021/04/28 06:24:37;;;;;;;6.47;5.80;;;;;;;;;;5007623;28;20994;-77
2021/04/28 06:27:04;;;;;;;8.20;5.93;;;;;;;;;;5008809;28;20490;-77
2021/04/28 06:29:31;;;;;;;10.77;6.17;;;;;;;;;;5009098;28;20455;-78
2021/04/28 06:31:58;;;;;;;6.13;5.60;;;;;;;;;;5009225;28;20909;-77
2021/04/28 06:34:25;;;;;;;7.70;6.40;;;;;;;;;;5011245;28;20508;-82
2021/04/28 06:36:51;;;;;;;8.63;6.17;;;;;;;;;;4990587;28;20461;-79
2021/04/28 06:39:18;;;;;;;7.27;6.43;;;;;;;;;;5004937;28;21149;-81
2021/04/28 06:41:46;;;;;;;9.23;6.70;;;;;;;;;;5007710;28;20849;-78
2021/04/28 06:44:13;;;;;;;6.50;5.40;;;;;;;;;;5008447;28;20993;-79
2021/04/28 06:46:40;;;;;;;8.27;5.90;;;;;;;;;;5008851;28;20461;-80
2021/04/28 06:49:07;;;;;;;6.40;5.80;;;;;;;;;;5008695;28;20845;-80
2021/04/28 06:51:34;;;;;;;7.57;6.50;;;;;;;;;;5008653;28;20927;-78
2021/04/28 06:54:01;;;;;;;8.60;6.03;;;;;;;;;;5005846;28;20840;-83
2021/04/28 06:56:28;;;;;;;10.33;6.60;;;;;;;;;;5008343;28;20450;-81
2021/04/28 06:58:55;;;;;;;6.20;5.60;;;;;;;;;;5009073;28;20482;-80
2021/04/28 07:01:22;;;;;;;9.33;6.57;;;;;;;;;;5008940;28;20442;-80
2021/04/28 07:03:49;;;;;;;11.93;6.07;;;;;;;;;;5008905;28;20447;-80
2021/04/28 07:06:16;;;;;;;8.73;7.10;;;;;;;;;;5010827;28;20464;-79
2021/04/28 07:08:43;;;;;;;7.13;6.17;;;;;;;;;;5010751;28;20967;-80
2021/04/28 07:11:10;;;;;;;8.87;6.57;;;;;;;;;;5011073;28;20443;-80
2021/04/28 07:13:37;;;;;;;7.30;6.60;;;;;;;;;;5009900;28;20500;-79
2021/04/28 07:16:05;;;;;;;10.43;6.70;;;;;;;;;;5005174;28;20454;-78
2021/04/28 07:18:31;;;;;;;7.23;6.47;;;;;;;;;;5006663;28;20863;-79
2021/04/28 07:20:58;;;;;;;8.23;6.70;;;;;;;;;;5008649;28;20473;-80
2021/04/28 07:23:25;;;;;;;6.67;6.07;;;;;;;;;;5008693;28;20445;-78
2021/04/28 07:25:52;;;;;;;9.70;6.97;;;;;;;;;;5009888;28;20483;-78
2021/04/28 07:28:19;;;;;;;6.87;6.03;;;;;;;;;;5014719;28;20475;-80
2021/04/28 07:30:46;;;;;;;9.23;6.80;;;;;;;;;;5014042;28;20451;-78
2021/04/28 07:33:13;;;;;;;17.00;7.33;;;;;;;;;;5014345;28;20421;-78
2021/04/28 07:35:40;;;;;;;7.47;6.67;;;;;;;;;;5014142;28;20495;-79
2021/04/28 07:38:07;;;;;;;7.17;6.20;;;;;;;;;;5009394;28;20444;-76
2021/04/28 07:40:34;;;;;;;11.23;6.93;;;;;;;;;;5009472;28;20447;-80
2021/04/28 07:43:01;;;;;;;9.10;6.73;;;;;;;;;;5011282;28;20435;-78
2021/04/28 07:45:28;;;;;;;11.70;7.07;;;;;;;;;;4994712;28;20464;-81
2021/04/28 07:47:55;;;;;;;9.03;6.90;;;;;;;;;;5011899;28;20505;-77
2021/04/28 07:50:24;;;;;;;8.33;6.77;;;;;;;;;;5012003;28;20429;-78
2021/04/28 07:52:50;;;;;;;10.13;7.60;;;;;;;;;;5013850;28;20413;-81
2021/04/28 07:55:18;;;;;;;9.83;6.63;;;;;;;;;;5014069;28;20443;-79
2021/04/28 07:57:45;;;;;;;10.60;6.20;;;;;;;;;;4996442;28;20499;-81
2021/04/28 08:00:14;;;;;;;8.87;6.70;;;;;;;;;;5010335;28;20449;-80
2021/04/28 08:02:40;;;;;;;8.97;6.83;;;;;;;;;;4989415;28;20443;-81
2021/04/28 08:05:08;;;;;;;10.57;7.00;;;;;;;;;;5010798;28;20944;-79
2021/04/28 08:07:35;;;;;;;8.77;6.43;;;;;;;;;;5010960;28;20488;-80
2021/04/28 08:10:02;;;;;;;9.40;5.97;;;;;;;;;;5011216;28;20472;-81
2021/04/28 08:12:29;;;;;;;9.27;7.00;;;;;;;;;;5011857;28;20991;-81
2021/04/28 08:14:56;;;;;;;8.23;6.20;;;;;;;;;;5013308;28;20446;-81
2021/04/28 08:17:23;;;;;;;9.60;7.03;;;;;;;;;;5013049;28;20441;-79
2021/04/28 08:19:49;;;;;;;7.40;6.47;;;;;;;;;;5013565;28;20465;-78
2021/04/28 08:22:16;;;;;;;9.57;6.30;;;;;;;;;;5010552;28;20935;-77
2021/04/28 08:24:44;;;;;;;8.80;6.73;;;;;;;;;;5007371;28;20872;-82
2021/04/28 08:27:11;;;;;;;6.40;5.67;;;;;;;;;;5010010;28;20486;-78
2021/04/28 08:29:38;;;;;;;7.73;6.93;;;;;;;;;;5011000;28;20439;-78
2021/04/28 08:32:05;;;;;;;9.17;6.47;;;;;;;;;;5011048;28;20933;-79
2021/04/28 08:34:32;;;;;;;9.40;6.50;;;;;;;;;;5011121;28;20526;-81
2021/04/28 08:36:59;;;;;;;8.90;6.63;;;;;;;;;;5012587;28;20447;-79
2021/04/28 08:39:26;;;;;;;10.53;6.97;;;;;;;;;;5012834;28;20537;-78
2021/04/28 08:41:54;;;;;;;7.90;6.40;;;;;;;;;;5012799;28;20443;-82
2021/04/28 08:44:21;;;;;;;8.70;6.80;;;;;;;;;;5007724;28;20444;-77
2021/04/28 08:46:49;;;;;;;7.70;7.00;;;;;;;;;;5007250;28;20475;-79
2021/04/28 08:49:15;;;;;;;7.60;6.30;;;;;;;;;;5009594;28;20570;-80
2021/04/28 08:51:42;;;;;;;9.10;6.77;;;;;;;;;;5010102;28;20442;-76
2021/04/28 08:54:09;;;;;;;8.47;6.80;;;;;;;;;;5010225;28;20431;-78
2021/04/28 08:56:36;;;;;;;9.00;7.20;;;;;;;;;;5010871;28;20463;-79
2021/04/28 08:59:05;;;;;;;14.17;7.30;;;;;;;;;;5009201;28;20982;-80
2021/04/28 09:01:33;;;;;;;7.63;6.80;;;;;;;;;;5006784;28;20435;-80
2021/04/28 09:04:00;;;;;;;10.40;7.33;;;;;;;;;;4992134;28;20434;-81
2021/04/28 09:06:28;;;;;;;9.77;6.63;;;;;;;;;;5010271;28;20491;-80
2021/04/28 09:08:54;;;;;;;8.13;6.57;;;;;;;;;;5009921;28;20528;-78
2021/04/28 09:11:36;;;;;;;9.10;6.90;;;;;;;;;;5010759;28;20470;-77
2021/04/28 09:14:12;;;;;;;10.17;7.13;;;;;;;;;;4997301;28;20901;-79
2021/04/28 09:16:41;;;;;;;8.23;6.13;;;;;;;;;;4995266;28;20473;-78
2021/04/28 09:19:08;;;;;;;7.93;7.13;;;;;;;;;;5012404;28;20473;-80
2021/04/28 09:21:50;;;;;;;9.53;6.77;;;;;;;;;;4990878;28;20505;-76
2021/04/28 09:24:17;;;;;;;7.97;6.67;;;;;;;;;;4990983;28;20439;-76
2021/04/28 09:26:44;;;;;;;12.53;7.53;;;;;;;;;;5008498;28;20559;-79
2021/04/28 09:29:16;;;;;;;10.47;6.80;;;;;;;;;;5009387;28;20467;-79
2021/04/28 09:31:53;;;;;;;8.40;6.93;;;;;;;;;;5009618;28;20451;-79
2021/04/28 09:34:25;;;;;;;8.20;6.70;;;;;;;;;;5009330;28;20461;-78
2021/04/28 09:37:00;;;;;;;6.83;6.20;;;;;;;;;;4987596;28;20481;-79
2021/04/28 09:39:27;;;;;;;10.40;7.00;;;;;;;;;;5008560;28;20472;-79
2021/04/28 09:41:55;;;;;;;8.83;6.70;;;;;;;;;;5010868;28;20453;-79
2021/04/28 09:44:27;;;;;;;7.00;6.23;;;;;;;;;;5010650;28;20435;-80
2021/04/28 09:46:55;;;;;;;8.07;7.27;;;;;;;;;;4992979;28;20498;-76
2021/04/28 09:49:22;;;;;;;10.63;5.90;;;;;;;;;;5011294;28;20513;-80
2021/04/28 09:51:54;;;;;;;7.07;6.37;;;;;;;;;;5011703;28;20439;-80
2021/04/28 09:54:21;;;;;;;11.83;6.87;;;;;;;;;;5012034;28;20457;-82
2021/04/28 09:56:48;;;;;;;11.00;7.50;;;;;;;;;;5010700;28;20443;-80
2021/04/28 09:59:15;;;;;;;9.57;7.37;;;;;;;;;;5005914;28;20645;-83
2021/04/28 10:01:43;;;;;;;9.87;7.40;;;;;;;;;;5007542;28;20481;-82
2021/04/28 10:04:10;;;;;;;9.73;6.70;;;;;;;;;;5008513;28;20432;-78
2021/04/28 10:06:40;;;;;;;8.43;6.67;;;;;;;;;;5008701;28;21235;-78
2021/04/28 10:09:08;;;;;;;8.93;7.07;;;;;;;;;;5008520;28;20502;-81
2021/04/28 10:11:35;;;;;;;9.23;6.87;;;;;;;;;;5007131;28;20463;-77
2021/04/28 10:14:02;;;;;;;7.63;6.77;;;;;;;;;;5006135;28;20439;-78
2021/04/28 10:16:29;;;;;;;9.70;7.50;;;;;;;;;;5008612;28;20948;-81
2021/04/28 10:18:57;;;;;;;9.03;6.80;;;;;;;;;;5009486;28;20467;-81
2021/04/28 10:21:24;;;;;;;8.07;6.90;;;;;;;;;;5009549;28;20440;-79
2021/04/28 10:23:54;;;;;;;11.70;8.20;;;;;;;;;;5010266;28;20446;-79
2021/04/28 10:26:21;;;;;;;8.27;6.60;;;;;;;;;;5010209;28;20507;-81
2021/04/28 10:28:47;;;;;;;7.80;7.00;;;;;;;;;;5010624;28;21225;-78
2021/04/28 10:31:14;;;;;;;8.07;6.77;;;;;;;;;;5010915;28;20927;-79
2021/04/28 10:33:41;;;;;;;9.00;7.63;;;;;;;;;;5008782;28;20474;-77
2021/04/28 10:36:10;;;;;;;9.07;7.13;;;;;;;;;;5005774;28;20435;-77
2021/04/28 10:38:37;;;;;;;10.73;7.67;;;;;;;;;;5010639;28;20455;-77
2021/04/28 10:41:03;;;;;;;7.90;7.10;;;;;;;;;;5011902;28;20517;-81
2021/04/28 10:43:35;;;;;;;13.47;8.70;;;;;;;;;;5010120;28;20450;-80
2021/04/28 10:46:16;;;;;;;10.00;7.50;;;;;;;;;;5009513;28;20483;-81
2021/04/28 10:48:43;;;;;;;10.10;8.70;;;;;;;;;;4976093;28;20471;-80
2021/04/28 10:51:31;;;;;;;9.10;7.93;;;;;;;;;;4992046;28;20448;-78
2021/04/28 10:54:21;;;;;;;9.23;7.60;;;;;;;;;;4978141;28;20440;-79
2021/04/28 10:56:58;;;;;;;10.83;7.30;;;;;;;;;;5007024;28;20446;-80
2021/04/28 10:59:31;;;;;;;10.33;7.60;;;;;;;;;;5006622;28;20460;-81
2021/04/28 11:02:05;;;;;;;8.73;7.03;;;;;;;;;;5012498;28;20450;-83
2021/04/28 11:04:32;;;;;;;10.10;7.97;;;;;;;;;;4995266;28;20442;-81
2021/04/28 11:07:00;;;;;;;12.63;7.47;;;;;;;;;;5013437;28;20500;-83
2021/04/28 11:09:27;;;;;;;8.20;7.17;;;;;;;;;;5014025;28;20533;-80
2021/04/28 11:11:56;;;;;;;9.17;6.77;;;;;;;;;;5014914;28;20449;-82
2021/04/28 11:14:27;;;;;;;8.80;6.33;;;;;;;;;;5013882;28;20439;-81
2021/04/28 11:16:54;;;;;;;12.00;7.70;;;;;;;;;;5009116;28;20442;-82
2021/04/28 11:19:22;;;;;;;8.50;7.07;;;;;;;;;;5011089;28;20526;-79
2021/04/28 11:22:10;;;;;;;10.00;8.50;;;;;;;;;;4990918;28;20430;-79
2021/04/28 11:24:51;;;;;;;9.23;7.70;;;;;;;;;;4997094;28;21264;-81
2021/04/28 11:27:33;;;;;;;8.30;7.20;;;;;;;;;;5011359;28;21022;-79
2021/04/28 11:30:01;;;;;;;11.30;8.20;;;;;;;;;;4997329;28;20439;-80
2021/04/28 11:32:28;;;;;;;11.40;8.00;;;;;;;;;;5012533;28;20461;-80
2021/04/28 11:34:55;;;;;;;8.87;7.50;;;;;;;;;;5004511;28;20443;-81
2021/04/28 11:37:21;;;;;;;13.20;9.07;;;;;;;;;;5008148;28;20443;-83
2021/04/28 11:39:48;;;;;;;13.77;8.43;;;;;;;;;;5011176;28;20450;-82
2021/04/28 11:42:16;;;;;;;12.00;7.30;;;;;;;;;;5011439;28;20442;-81
2021/04/28 11:44:47;;;;;;;9.80;8.53;;;;;;;;;;5011750;28;20593;-81
2021/04/28 11:47:16;;;;;;;11.97;9.03;;;;;;;;;;4991355;28;20491;-80
2021/04/28 11:49:43;;;;;;;9.67;8.40;;;;;;;;;;4988807;28;20429;-80
2021/04/28 11:52:10;;;;;;;17.00;9.23;;;;;;;;;;5005633;28;20485;-80
2021/04/28 11:54:37;;;;;;;12.27;7.80;;;;;;;;;;5008525;28;20857;-83
2021/04/28 11:57:04;;;;;;;10.33;8.53;;;;;;;;;;4991076;28;20465;-79
2021/04/28 11:59:33;;;;;;;11.17;8.97;;;;;;;;;;5009332;28;20467;-83
2021/04/28 12:02:00;;;;;;;10.73;7.73;;;;;;;;;;5009753;28;21010;-81
2021/04/28 12:04:29;;;;;;;11.90;8.93;;;;;;;;;;5010816;28;20455;-81
2021/04/28 12:06:56;;;;;;;9.77;8.20;;;;;;;;;;5010524;28;20487;-79
2021/04/28 12:09:31;;;;;;;13.50;8.87;;;;;;;;;;5009877;28;20470;-82
2021/04/28 12:12:12;;;;;;;12.20;8.50;;;;;;;;;;5005291;28;20450;-78
2021/04/28 12:14:40;;;;;;;11.77;8.50;;;;;;;;;;4989656;28;20827;-79
2021/04/28 12:17:07;;;;;;;9.57;8.30;;;;;;;;;;4991358;28;20450;-78
2021/04/28 12:19:35;;;;;;;13.83;9.17;;;;;;;;;;5008541;28;20900;-81
2021/04/28 12:22:03;;;;;;;11.53;8.60;;;;;;;;;;5001761;28;21015;-79
2021/04/28 12:24:31;;;;;;;9.40;8.43;;;;;;;;;;5000138;28;20482;-81
2021/04/28 12:27:12;;;;;;;10.60;8.33;;;;;;;;;;4993895;28;20490;-80
2021/04/28 12:29:40;;;;;;;11.57;8.70;;;;;;;;;;4983795;28;20986;-82
2021/04/28 12:32:08;;;;;;;9.37;8.20;;;;;;;;;;4994095;28;20522;-83
2021/04/28 12:34:36;;;;;;;9.50;7.60;;;;;;;;;;5009333;28;20431;-84
2021/04/28 12:37:12;;;;;;;12.00;8.70;;;;;;;;;;4989179;28;20450;-82
2021/04/28 12:39:39;;;;;;;12.97;9.23;;;;;;;;;;4993257;28;20697;-86
2021/04/28 12:42:06;;;;;;;11.30;8.37;;;;;;;;;;4993056;28;20819;-83
2021/04/28 12:44:35;;;;;;;10.07;7.70;;;;;;;;;;4991543;28;20506;-83
2021/04/28 12:47:03;;;;;;;9.87;8.53;;;;;;;;;;5000488;28;20482;-79
2021/04/28 12:49:30;;;;;;;9.00;7.70;;;;;;;;;;5012985;28;20819;-81
2021/04/28 12:52:00;;;;;;;13.43;9.27;;;;;;;;;;5012994;28;20439;-83
2021/04/28 12:54:27;;;;;;;11.80;9.20;;;;;;;;;;5012483;28;20439;-80
2021/04/28 12:56:54;;;;;;;10.00;9.00;;;;;;;;;;5009795;28;20519;-81
2021/04/28 12:59:22;;;;;;;10.03;8.30;;;;;;;;;;5007103;28;20538;-81
2021/04/28 13:02:00;;;;;;;10.83;9.07;;;;;;;;;;4992543;28;20443;-85
2021/04/28 13:04:27;;;;;;;11.27;8.70;;;;;;;;;;4993172;28;20529;-82
2021/04/28 13:07:08;;;;;;;10.20;8.30;;;;;;;;;;5010514;28;20483;-81
2021/04/28 13:09:36;;;;;;;10.03;8.20;;;;;;;;;;5010636;28;20567;-84
2021/04/28 13:12:03;;;;;;;11.10;9.60;;;;;;;;;;5012384;28;20864;-81
2021/04/28 13:14:45;;;;;;;12.43;8.83;;;;;;;;;;5012446;28;20504;-82
2021/04/28 13:17:12;;;;;;;10.70;9.17;;;;;;;;;;4997122;28;20447;-85
2021/04/28 13:19:40;;;;;;;11.00;9.77;;;;;;;;;;5009203;28;20474;-83
2021/04/28 13:22:08;;;;;;;10.77;8.87;;;;;;;;;;5007004;28;20867;-82
2021/04/28 13:24:37;;;;;;;11.80;8.37;;;;;;;;;;5009410;28;20438;-83
2021/04/28 13:27:05;;;;;;;11.83;8.00;;;;;;;;;;4991994;28;20482;-79
2021/04/28 13:29:46;;;;;;;9.90;7.60;;;;;;;;;;5010181;28;20475;-79
2021/04/28 13:32:27;;;;;;;10.50;7.00;;;;;;;;;;5010195;28;20443;-79
2021/04/28 13:34:54;;;;;;;10.80;8.07;;;;;;;;;;4995034;28;20799;-80
2021/04/28 13:37:20;;;;;;;8.10;7.23;;;;;;;;;;5012176;28;20452;-78
2021/04/28 13:39:48;;;;;;;10.00;7.13;;;;;;;;;;5012203;28;20500;-80
2021/04/28 13:42:16;;;;;;;10.73;8.00;;;;;;;;;;5008894;28;20799;-81
2021/04/28 13:44:43;;;;;;;11.20;8.53;;;;;;;;;;5006946;28;21532;-83
2021/04/28 13:47:10;;;;;;;8.17;7.00;;;;;;;;;;4991628;28;20517;-83
2021/04/28 13:49:37;;;;;;;11.63;8.70;;;;;;;;;;5012360;28;20451;-82
2021/04/28 13:52:04;;;;;;;10.10;8.40;;;;;;;;;;5010235;28;20435;-85
2021/04/28 13:54:32;;;;;;;10.70;7.47;;;;;;;;;;5008056;28;20455;-77
2021/04/28 13:57:00;;;;;;;9.57;7.50;;;;;;;;;;5010579;28;20445;-81
2021/04/28 13:59:27;;;;;;;10.90;8.07;;;;;;;;;;5006390;28;20451;-80
2021/04/28 14:01:53;;;;;;;10.30;9.07;;;;;;;;;;5008579;28;20453;-83
2021/04/28 14:04:20;;;;;;;11.07;7.87;;;;;;;;;;5009563;28;20439;-80
2021/04/28 14:06:47;;;;;;;9.63;7.93;;;;;;;;;;5009842;28;20475;-79
2021/04/28 14:09:14;;;;;;;11.57;9.50;;;;;;;;;;5009856;28;20475;-79
2021/04/28 14:11:43;;;;;;;13.03;9.83;;;;;;;;;;4993134;28;20498;-84
2021/04/28 14:14:11;;;;;;;11.63;9.30;;;;;;;;;;5011871;28;20489;-80
2021/04/28 14:16:38;;;;;;;8.67;7.87;;;;;;;;;;5011888;28;20445;-83
2021/04/28 14:19:05;;;;;;;11.40;8.47;;;;;;;;;;5010441;28;20986;-81
2021/04/28 14:21:32;;;;;;;8.40;7.30;;;;;;;;;;5005950;28;20439;-80
2021/04/28 14:23:59;;;;;;;10.43;6.53;;;;;;;;;;5007552;28;20720;-81
2021/04/28 14:26:26;;;;;;;10.30;8.50;;;;;;;;;;5009016;28;20490;-83
2021/04/28 14:28:53;;;;;;;11.00;8.80;;;;;;;;;;5009284;28;20864;-80
2021/04/28 14:31:20;;;;;;;8.50;7.57;;;;;;;;;;5009680;28;20850;-82
2021/04/28 14:33:47;;;;;;;9.13;7.50;;;;;;;;;;5011136;28;20955;-83
2021/04/28 14:36:15;;;;;;;7.93;7.13;;;;;;;;;;5014806;28;20508;-82
2021/04/28 14:38:41;;;;;;;8.73;7.60;;;;;;;;;;5015700;28;20467;-81
2021/04/28 14:41:08;;;;;;;7.30;6.50;;;;;;;;;;5015221;28;20447;-83
2021/04/28 14:43:35;;;;;;;10.27;8.20;;;;;;;;;;5010187;28;20441;-82
2021/04/28 14:46:02;;;;;;;8.43;7.00;;;;;;;;;;5010656;28;20493;-82
2021/04/28 14:48:29;;;;;;;13.70;6.87;;;;;;;;;;5013018;28;20511;-84
2021/04/28 14:51:00;;;;;;;11.90;6.47;;;;;;;;;;5012957;28;20451;-83
2021/04/28 14:53:27;;;;;;;12.77;6.63;;;;;;;;;;5013641;28;20441;-85
2021/04/28 14:55:54;;;;;;;9.90;7.40;;;;;;;;;;5014630;28;20526;-81
2021/04/28 14:58:20;;;;;;;10.23;7.53;;;;;;;;;;5015122;28;20824;-80
2021/04/28 15:00:48;;;;;;;7.33;6.23;;;;;;;;;;5015273;28;20445;-80
2021/04/28 15:03:14;;;;;;;7.80;6.43;;;;;;;;;;5016082;28;20936;-80
2021/04/28 15:05:42;;;;;;;9.03;6.73;;;;;;;;;;5010195;28;20935;-83
2021/04/28 15:08:09;;;;;;;7.70;6.83;;;;;;;;;;5009436;28;20503;-80
2021/04/28 15:10:36;;;;;;;8.13;6.37;;;;;;;;;;5012265;28;20751;-80
2021/04/28 15:13:02;;;;;;;8.93;6.80;;;;;;;;;;5012922;28;20863;-79
2021/04/28 15:15:29;;;;;;;7.37;6.63;;;;;;;;;;5014117;28;20803;-80
2021/04/28 15:17:56;;;;;;;7.37;6.30;;;;;;;;;;5013528;28;20494;-79
2021/04/28 15:20:23;;;;;;;7.37;5.50;;;;;;;;;;5014757;28;20790;-79
2021/04/28 15:22:50;;;;;;;7.90;6.33;;;;;;;;;;5014644;28;20447;-79
2021/04/28 15:25:17;;;;;;;7.27;5.90;;;;;;;;;;5014693;28;20449;-79
2021/04/28 15:27:45;;;;;;;6.43;5.83;;;;;;;;;;5010454;28;20585;-80
2021/04/28 15:30:12;;;;;;;7.80;5.80;;;;;;;;;;5009367;28;20470;-79
2021/04/28 15:32:39;;;;;;;7.17;5.30;;;;;;;;;;5010606;28;20465;-81
2021/04/28 15:35:08;;;;;;;7.50;5.73;;;;;;;;;;5011806;28;20439;-80
2021/04/28 15:37:34;;;;;;;6.10;5.50;;;;;;;;;;5012217;28;20490;-78
2021/04/28 15:40:02;;;;;;;8.17;6.07;;;;;;;;;;5012687;28;20438;-80
2021/04/28 15:42:29;;;;;;;6.90;6.20;;;;;;;;;;5008947;28;20983;-82
2021/04/28 15:44:55;;;;;;;7.77;5.90;;;;;;;;;;5008546;28;20838;-82
2021/04/28 15:47:22;;;;;;;12.07;6.13;;;;;;;;;;5010723;28;20577;-82
2021/04/28 15:49:49;;;;;;;8.73;6.43;;;;;;;;;;5011363;28;20440;-77
2021/04/28 15:52:16;;;;;;;6.93;6.00;;;;;;;;;;5012075;28;20447;-80
2021/04/28 15:54:43;;;;;;;7.80;6.07;;;;;;;;;;5012904;28;20500;-84
2021/04/28 15:57:10;;;;;;;9.70;6.50;;;;;;;;;;5013056;28;20447;-79
2021/04/28 15:59:37;;;;;;;7.57;6.20;;;;;;;;;;5010807;28;20820;-81
2021/04/28 16:02:04;;;;;;;6.00;5.40;;;;;;;;;;5002741;28;20455;-78
2021/04/28 16:04:31;;;;;;;7.77;5.43;;;;;;;;;;5002111;28;20457;-82
2021/04/28 16:06:58;;;;;;;10.90;6.30;;;;;;;;;;5007973;28;20533;-81
2021/04/28 16:09:25;;;;;;;7.90;6.00;;;;;;;;;;5010672;28;20824;-78
2021/04/28 16:11:51;;;;;;;8.43;6.10;;;;;;;;;;5011227;28;20439;-81
2021/04/28 16:14:19;;;;;;;9.37;6.10;;;;;;;;;;5011448;28;20435;-81
2021/04/28 16:16:46;;;;;;;11.03;6.30;;;;;;;;;;5012339;28;20459;-82
2021/04/28 16:19:13;;;;;;;8.53;5.47;;;;;;;;;;5013607;28;20542;-81
2021/04/28 16:21:39;;;;;;;10.23;6.40;;;;;;;;;;5013087;28;20447;-80
2021/04/28 16:24:07;;;;;;;9.97;5.53;;;;;;;;;;5013635;28;20442;-83
2021/04/28 16:26:34;;;;;;;6.60;5.87;;;;;;;;;;4992940;28;20557;-82
2021/04/28 16:29:01;;;;;;;7.93;5.47;;;;;;;;;;4988802;28;20447;-83
2021/04/28 16:31:28;;;;;;;6.10;5.50;;;;;;;;;;5009817;28;21014;-83
2021/04/28 16:33:55;;;;;;;9.90;5.70;;;;;;;;;;5010950;28;20439;-81
2021/04/28 16:36:22;;;;;;;6.23;5.53;;;;;;;;;;5011112;28;20462;-80
2021/04/28 16:38:49;;;;;;;6.57;5.23;;;;;;;;;;5011065;28;20467;-80
2021/04/28 16:41:16;;;;;;;10.43;6.10;;;;;;;;;;5012926;28;20441;-80
2021/04/28 16:43:43;;;;;;;11.30;5.90;;;;;;;;;;4995824;28;20454;-78
2021/04/28 16:46:10;;;;;;;9.57;5.70;;;;;;;;;;5012841;28;20490;-79
2021/04/28 16:48:37;;;;;;;7.00;5.20;;;;;;;;;;5012425;28;20541;-81
2021/04/28 16:51:05;;;;;;;9.80;6.27;;;;;;;;;;5007270;28;21195;-78
2021/04/28 16:53:31;;;;;;;7.90;5.83;;;;;;;;;;5008101;28;20462;-80
2021/04/28 16:56:00;;;;;;;11.33;5.43;;;;;;;;;;5010346;28;20935;-77
2021/04/28 16:58:27;;;;;;;9.70;6.47;;;;;;;;;;5009999;28;20545;-81
2021/04/28 17:00:53;;;;;;;8.07;6.03;;;;;;;;;;5010704;28;20439;-79
2021/04/28 17:03:20;;;;;;;6.87;5.10;;;;;;;;;;5011563;28;20473;-80
2021/04/28 17:05:48;;;;;;;7.20;5.30;;;;;;;;;;5012457;28;20446;-78
2021/04/28 17:08:15;;;;;;;5.30;4.80;;;;;;;;;;5011413;28;20485;-79
2021/04/28 17:10:42;;;;;;;7.13;5.63;;;;;;;;;;5008785;28;20446;-80
2021/04/28 17:13:09;;;;;;;6.20;5.23;;;;;;;;;;4988152;28;20447;-78
2021/04/28 17:15:35;;;;;;;5.80;5.20;;;;;;;;;;5010199;28;20442;-79
2021/04/28 17:18:02;;;;;;;8.40;4.97;;;;;;;;;;5009212;28;21111;-78
2021/04/28 17:20:29;;;;;;;8.40;4.90;;;;;;;;;;5009526;28;20450;-79
2021/04/28 17:22:57;;;;;;;5.87;4.40;;;;;;;;;;5010426;28;20447;-78
2021/04/28 17:25:26;;;;;;;6.63;4.97;;;;;;;;;;5011978;28;20432;-78
2021/04/28 17:27:53;;;;;;;8.33;5.53;;;;;;;;;;5012204;28;20505;-82
2021/04/28 17:30:20;;;;;;;7.20;4.73;;;;;;;;;;5012146;28;20442;-81
2021/04/28 17:32:47;;;;;;;6.20;4.40;;;;;;;;;;5010250;28;20436;-82
2021/04/28 17:35:14;;;;;;;6.87;4.60;;;;;;;;;;5006208;28;20438;-78
2021/04/28 17:37:41;;;;;;;6.80;4.70;;;;;;;;;;5007777;28;20489;-81
2021/04/28 17:40:09;;;;;;;6.03;5.03;;;;;;;;;;5009945;28;20449;-78
2021/04/28 17:42:36;;;;;;;11.23;5.20;;;;;;;;;;5010050;28;20732;-81
2021/04/28 17:45:03;;;;;;;7.20;4.40;;;;;;;;;;5010197;28;20447;-78
2021/04/28 17:47:30;;;;;;;5.10;4.30;;;;;;;;;;5011741;28;20506;-82
2021/04/28 17:49:56;;;;;;;9.20;4.00;;;;;;;;;;5012009;28;20496;-78
2021/04/28 17:52:23;;;;;;;5.33;4.00;;;;;;;;;;5011820;28;20454;-80
2021/04/28 17:54:50;;;;;;;7.93;4.10;;;;;;;;;;5011172;28;20689;-83
2021/04/28 17:57:18;;;;;;;7.73;4.23;;;;;;;;;;5005771;28;20439;-80
2021/04/28 17:59:45;;;;;;;5.93;4.10;;;;;;;;;;5007317;28;20804;-85
2021/04/28 18:02:12;;;;;;;6.00;4.40;;;;;;;;;;5009317;28;20605;-79
2021/04/28 18:04:39;;;;;;;10.53;4.73;;;;;;;;;;5009473;28;20497;-82
2021/04/28 18:07:06;;;;;;;5.47;4.57;;;;;;;;;;5009621;28;20494;-79
2021/04/28 18:09:33;;;;;;;7.07;4.80;;;;;;;;;;5007576;28;20827;-80
2021/04/28 18:12:00;;;;;;;6.07;4.23;;;;;;;;;;5005663;28;20541;-78
2021/04/28 18:14:27;;;;;;;4.93;3.40;;;;;;;;;;5007353;28;20431;-79
2021/04/28 18:16:54;;;;;;;5.00;3.53;;;;;;;;;;5009133;28;20447;-80
2021/04/28 18:19:21;;;;;;;5.20;3.70;;;;;;;;;;5009042;28;20459;-76
2021/04/28 18:21:48;;;;;;;4.60;3.37;;;;;;;;;;5010005;28;20523;-79
2021/04/28 18:24:15;;;;;;;6.20;3.20;;;;;;;;;;5010280;28;20525;-76
2021/04/28 18:26:42;;;;;;;4.60;3.57;;;;;;;;;;5011497;28;20493;-77
2021/04/28 18:29:09;;;;;;;6.50;3.60;;;;;;;;;;5010399;28;20469;-80
2021/04/28 18:31:36;;;;;;;6.03;3.80;;;;;;;;;;5011304;28;20447;-77
2021/04/28 18:34:06;;;;;;;5.87;3.73;;;;;;;;;;4987161;28;20482;-81
2021/04/28 18:36:33;;;;;;;6.93;4.07;;;;;;;;;;4988828;28;20559;-79
2021/04/28 18:39:00;;;;;;;4.67;3.67;;;;;;;;;;5009776;28;20509;-76
2021/04/28 18:41:28;;;;;;;4.13;3.73;;;;;;;;;;5008447;28;20469;-77
2021/04/28 18:43:55;;;;;;;6.17;3.90;;;;;;;;;;4999745;28;20484;-79
2021/04/28 18:46:21;;;;;;;4.83;4.33;;;;;;;;;;5000806;28;20494;-82
2021/04/28 18:48:49;;;;;;;6.30;4.60;;;;;;;;;;5001380;28;20467;-80
2021/04/28 18:51:16;;;;;;;5.10;4.13;;;;;;;;;;5005400;28;20468;-78
2021/04/28 18:53:45;;;;;;;4.17;3.77;;;;;;;;;;5006516;28;20783;-81
2021/04/28 18:56:13;;;;;;;5.53;3.17;;;;;;;;;;5005632;28;20443;-79
2021/04/28 18:58:40;;;;;;;5.00;3.63;;;;;;;;;;5006710;28;20473;-79
2021/04/28 19:01:07;;;;;;;4.43;3.90;;;;;;;;;;5007502;28;20508;-81
2021/04/28 19:03:33;;;;;;;4.83;3.70;;;;;;;;;;5007810;28;21003;-79
2021/04/28 19:06:01;;;;;;;6.40;4.07;;;;;;;;;;4991119;28;20443;-79
2021/04/28 19:08:29;;;;;;;6.30;3.80;;;;;;;;;;5006560;28;20475;-79
2021/04/28 19:10:57;;;;;;;6.50;4.03;;;;;;;;;;5001825;28;20953;-81
2021/04/28 19:13:25;;;;;;;4.70;4.03;;;;;;;;;;4985952;28;20447;-76
2021/04/28 19:15:52;;;;;;;6.20;4.33;;;;;;;;;;5006369;28;20493;-82
2021/04/28 19:18:19;;;;;;;5.03;3.80;;;;;;;;;;5005483;28;20521;-80
2021/04/28 19:20:51;;;;;;;3.90;3.40;;;;;;;;;;5007499;28;20535;-80
2021/04/28 19:23:18;;;;;;;4.30;3.50;;;;;;;;;;5010887;28;20485;-81
2021/04/28 19:25:45;;;;;;;4.50;3.80;;;;;;;;;;4993743;28;20465;-81
2021/04/28 19:28:12;;;;;;;8.50;3.87;;;;;;;;;;5011025;28;20902;-79
2021/04/28 19:30:39;;;;;;;10.93;3.67;;;;;;;;;;5011413;28;20443;-80
2021/04/28 19:33:06;;;;;;;5.03;3.30;;;;;;;;;;5008544;28;20448;-80
2021/04/28 19:35:33;;;;;;;7.13;3.90;;;;;;;;;;5009673;28;20488;-82
2021/04/28 19:38:00;;;;;;;3.23;2.93;;;;;;;;;;5015017;28;20497;-81
2021/04/28 19:40:28;;;;;;;6.40;3.53;;;;;;;;;;5011467;28;20558;-79
2021/04/28 19:42:55;;;;;;;6.97;3.83;;;;;;;;;;5010548;28;20884;-81
2021/04/28 19:45:22;;;;;;;6.30;3.73;;;;;;;;;;5004140;28;20426;-80
2021/04/28 19:47:50;;;;;;;4.10;3.30;;;;;;;;;;5008529;28;20481;-78
2021/04/28 19:50:17;;;;;;;3.87;3.20;;;;;;;;;;5008569;28;20436;-79
2021/04/28 19:52:44;;;;;;;4.17;3.73;;;;;;;;;;5011009;28;20512;-77
2021/04/28 19:55:11;;;;;;;6.27;3.70;;;;;;;;;;5011137;28;20410;-81
2021/04/28 19:57:39;;;;;;;5.87;3.50;;;;;;;;;;5011860;28;20563;-79
2021/04/28 20:00:10;;;;;;;4.73;3.33;;;;;;;;;;5011422;28;20462;-78
2021/04/28 20:02:36;;;;;;;4.63;3.67;;;;;;;;;;5008166;28;20408;-78
2021/04/28 20:05:04;;;;;;;3.90;3.27;;;;;;;;;;5009417;28;20508;-78
2021/04/28 20:07:30;;;;;;;4.27;3.57;;;;;;;;;;5010652;28;20494;-80
2021/04/28 20:09:57;;;;;;;4.83;3.40;;;;;;;;;;5011759;28;20421;-79
2021/04/28 20:12:24;;;;;;;4.60;3.50;;;;;;;;;;5011983;28;20409;-83
2021/04/28 20:14:52;;;;;;;6.17;3.50;;;;;;;;;;5013030;28;21093;-76
2021/04/28 20:17:19;;;;;;;8.00;3.33;;;;;;;;;;5013059;28;20500;-77
2021/04/28 20:19:46;;;;;;;9.23;3.80;;;;;;;;;;5013567;28;20414;-77
2021/04/28 20:22:13;;;;;;;4.60;3.60;;;;;;;;;;5013681;28;20786;-80
2021/04/28 20:24:39;;;;;;;5.70;4.17;;;;;;;;;;5008635;28;20425;-78
2021/04/28 20:27:06;;;;;;;4.53;3.70;;;;;;;;;;5008432;28;20482;-80
2021/04/28 20:29:33;;;;;;;6.83;3.60;;;;;;;;;;5011248;28;20437;-79
2021/04/28 20:32:01;;;;;;;4.20;3.13;;;;;;;;;;5010048;28;20428;-80
2021/04/28 20:34:28;;;;;;;4.30;3.33;;;;;;;;;;5011234;28;20410;-85
2021/04/28 20:36:55;;;;;;;5.23;3.97;;;;;;;;;;5012078;28;20902;-87
2021/04/28 20:39:21;;;;;;;6.20;3.37;;;;;;;;;;5012567;28;20437;-81
2021/04/28 20:41:49;;;;;;;5.87;2.93;;;;;;;;;;5009777;28;20443;-85
2021/04/28 20:44:16;;;;;;;5.43;3.50;;;;;;;;;;5007334;28;20447;-78
2021/04/28 20:46:43;;;;;;;5.63;3.40;;;;;;;;;;5010030;28;21038;-82
2021/04/28 20:49:11;;;;;;;5.13;3.67;;;;;;;;;;5010856;28;20474;-80